Time;durP1;ratioP1;P1;durP2;ratioP2;P2;SDS_P1;SDS_P2;PMS_P1;PMS_P2;Temp;Humidity;BMP_temperature;BMP_pressure;BME280_temperature;BME280_humidity;BME280_pressure;Samples;Min_cycle;Max_cycle;Signal;HPM_P1;HPM_P2
2021/06/02 00:00:12;;;;;;;3.20;2.15;;;;;;;11.44;58.49;99618.14;129977;1101;22547;-63
2021/06/02 00:02:54;;;;;;;4.18;2.23;;;;;;;11.41;58.40;99615.92;129941;1101;25865;-63
2021/06/02 00:05:23;;;;;;;4.63;2.40;;;;;;;11.41;58.66;99609.64;130041;1101;23257;-63
2021/06/02 00:07:51;;;;;;;6.85;2.18;;;;;;;11.39;58.63;99618.12;129979;1101;23298;-63
2021/06/02 00:10:20;;;;;;;5.73;3.35;;;;;;;11.37;58.83;99614.83;130008;1101;22627;-63
2021/06/02 00:12:58;;;;;;;5.78;2.30;;;;;;;11.36;58.84;99612.35;129966;1101;23559;-63
2021/06/02 00:15:27;;;;;;;4.75;2.30;;;;;;;11.34;58.93;99615.34;129980;1101;22675;-63
2021/06/02 00:17:56;;;;;;;7.10;2.40;;;;;;;11.33;58.82;99619.14;129962;1101;22584;-64
2021/06/02 00:20:25;;;;;;;5.45;2.45;;;;;;;11.30;59.00;99611.48;129974;1101;23154;-64
2021/06/02 00:22:53;;;;;;;8.93;2.68;;;;;;;11.29;58.98;99612.56;129990;1101;22687;-64
2021/06/02 00:25:27;;;;;;;5.90;2.30;;;;;;;11.27;59.06;99606.53;129946;1101;22568;-63
2021/06/02 00:27:55;;;;;;;3.25;2.10;;;;;;;11.25;58.95;99598.61;130018;1101;22573;-64
2021/06/02 00:30:24;;;;;;;7.15;2.48;;;;;;;11.25;59.25;99603.27;129930;1101;22710;-64
2021/06/02 00:32:56;;;;;;;4.73;2.20;;;;;;;11.22;59.13;99606.52;129974;1101;23762;-64
2021/06/02 00:35:25;;;;;;;10.28;3.50;;;;;;;11.18;58.85;99599.92;129980;1101;22649;-64
2021/06/02 00:37:53;;;;;;;5.88;2.30;;;;;;;11.19;59.23;99602.40;129956;1101;22591;-64
2021/06/02 00:40:42;;;;;;;7.55;2.23;;;;;;;11.12;59.39;99588.14;129937;1101;22702;-63
2021/06/02 00:43:13;;;;;;;5.33;2.50;;;;;;;11.15;59.38;99597.72;130030;1101;22531;-63
2021/06/02 00:45:44;;;;;;;3.20;2.30;;;;;;;11.13;59.50;99595.24;129934;1101;22572;-63
2021/06/02 00:48:13;;;;;;;6.88;2.18;;;;;;;11.13;59.54;99591.69;130019;1101;22676;-63
2021/06/02 00:50:43;;;;;;;3.58;2.08;;;;;;;11.11;59.46;99586.50;129982;1101;22659;-63
2021/06/02 00:53:12;;;;;;;4.80;2.10;;;;;;;11.09;59.72;99590.59;130000;1101;23195;-63
2021/06/02 00:55:43;;;;;;;7.73;2.40;;;;;;;11.08;59.55;99588.94;129989;1101;22626;-63
2021/06/02 00:58:30;;;;;;;8.70;2.85;;;;;;;11.08;59.16;99588.94;130056;1101;22723;-63
2021/06/02 01:00:58;;;;;;;5.70;2.40;;;;;;;11.08;59.79;99581.59;129974;1101;22538;-64
2021/06/02 01:03:27;;;;;;;5.00;2.05;;;;;;;11.08;59.52;99581.59;129989;1101;22568;-63
2021/06/02 01:05:56;;;;;;;4.38;2.23;;;;;;;11.08;59.91;99578.86;129928;1101;22654;-63
2021/06/02 01:08:24;;;;;;;4.35;2.88;;;;;;;11.09;59.85;99590.59;130013;1101;22955;-61
2021/06/02 01:10:53;;;;;;;6.08;2.50;;;;;;;11.08;59.85;99578.86;129967;1101;23072;-62
2021/06/02 01:13:21;;;;;;;6.68;2.13;;;;;;;11.07;59.84;99574.48;130026;1101;22562;-62
2021/06/02 01:15:51;;;;;;;4.78;2.20;;;;;;;11.08;59.90;99578.86;129999;1101;22719;-62
2021/06/02 01:18:20;;;;;;;7.35;2.60;;;;;;;11.07;59.89;99582.66;130052;1101;22556;-62
2021/06/02 01:20:51;;;;;;;8.60;2.80;;;;;;;11.07;59.83;99590.02;130027;1101;22533;-62
2021/06/02 01:23:19;;;;;;;7.10;2.35;;;;;;;11.07;59.75;99581.84;129992;1101;22698;-62
2021/06/02 01:25:48;;;;;;;9.10;3.83;;;;;;;11.05;59.95;99576.64;129940;1101;23229;-62
2021/06/02 01:28:16;;;;;;;4.85;2.50;;;;;;;11.04;60.01;99571.45;130039;1101;23429;-62
2021/06/02 01:30:44;;;;;;;4.18;2.03;;;;;;;11.02;60.21;99570.88;129990;1101;22536;-62
2021/06/02 01:33:42;;;;;;;5.13;2.33;;;;;;;10.99;60.26;99567.59;130034;1101;22747;-62
2021/06/02 01:36:12;;;;;;;5.18;2.38;;;;;;;10.97;60.43;99591.56;129966;1101;22535;-62
2021/06/02 01:39:19;;;;;;;3.18;2.00;;;;;;;10.94;60.27;99574.92;130004;1101;22584;-62
2021/06/02 01:42:25;;;;;;;6.85;2.80;;;;;;;10.91;60.36;99570.80;129690;1102;22657;-69
2021/06/02 01:44:59;;;;;;;3.05;2.50;;;;;;;10.89;60.32;99578.41;129680;1102;22639;-69
2021/06/02 01:48:18;;;;;;;8.73;2.73;;;;;;;10.88;60.72;99589.57;129907;1101;22575;-68
2021/06/02 01:51:09;;;;;;;4.35;2.40;;;;;;;10.85;60.78;99590.91;129605;1104;22550;-69
2021/06/02 01:54:07;;;;;;;6.58;2.70;;;;;;;10.83;60.81;99581.33;129184;1106;22600;-69
2021/06/02 01:57:07;;;;;;;5.70;2.10;;;;;;;10.80;61.11;99582.70;129130;1107;23582;-69
2021/06/02 01:59:54;;;;;;;6.20;2.58;;;;;;;10.78;61.08;99573.13;129064;1108;22688;-69
2021/06/02 02:02:28;;;;;;;5.83;2.35;;;;;;;10.77;61.42;99576.93;129100;1108;22779;-69
2021/06/02 02:05:27;;;;;;;3.78;2.58;;;;;;;10.75;61.40;99588.09;129145;1108;22586;-69
2021/06/02 02:07:56;;;;;;;6.53;2.58;;;;;;;10.74;61.64;99591.89;129100;1108;22663;-69
2021/06/02 02:10:31;;;;;;;4.80;2.50;;;;;;;10.73;61.68;99598.42;129184;1108;23171;-69
2021/06/02 02:13:15;;;;;;;9.48;2.70;;;;;;;10.72;61.59;99593.22;129090;1107;22677;-69
2021/06/02 02:16:22;;;;;;;7.43;2.93;;;;;;;10.71;61.69;99592.39;129103;1108;23351;-69
2021/06/02 02:18:56;;;;;;;5.40;2.05;;;;;;;10.70;61.68;99589.92;129082;1108;22765;-69
2021/06/02 02:21:40;;;;;;;6.55;2.40;;;;;;;10.69;61.69;99585.55;129149;1107;22722;-69
2021/06/02 02:24:11;;;;;;;5.13;2.60;;;;;;;10.68;61.98;99592.08;129121;1107;23062;-69
2021/06/02 02:27:17;;;;;;;6.35;2.45;;;;;;;10.67;62.10;99591.29;129195;1105;22749;-69
2021/06/02 02:29:55;;;;;;;6.33;2.40;;;;;;;10.64;61.88;99591.80;129627;1104;22589;-69
2021/06/02 02:32:55;;;;;;;7.28;3.15;;;;;;;10.63;62.02;99593.70;129675;1102;23205;-70
2021/06/02 02:35:38;;;;;;;6.58;2.50;;;;;;;10.63;62.10;99587.42;129917;1100;22691;-70
2021/06/02 02:38:24;;;;;;;4.50;2.40;;;;;;;10.63;62.14;99601.88;129975;1101;22546;-70
2021/06/02 02:40:58;;;;;;;8.43;2.60;;;;;;;10.63;62.05;99596.42;129965;1101;22556;-63
2021/06/02 02:43:59;;;;;;;5.38;2.30;;;;;;;10.64;62.21;99597.25;129942;1101;22603;-63
2021/06/02 02:46:33;;;;;;;4.80;2.53;;;;;;;10.63;62.03;99596.42;129941;1101;22770;-63
2021/06/02 02:49:24;;;;;;;2.68;2.23;;;;;;;10.67;62.46;99609.54;129899;1101;22567;-63
2021/06/02 02:52:13;;;;;;;5.33;2.13;;;;;;;10.67;62.41;99610.36;129650;1104;23545;-63
2021/06/02 02:55:02;;;;;;;;;;;;;;;10.66;62.10;99603.27;129624;1104;22683;-63
2021/06/02 02:57:33;;;;;;;6.28;2.23;;;;;;;10.66;62.42;99618.79;129643;1104;21994;-63
2021/06/02 03:00:12;;;;;;;3.98;2.28;;;;;;;10.66;62.49;99616.89;129601;1104;22620;-63
2021/06/02 03:02:59;;;;;;;4.45;2.50;;;;;;;10.63;62.38;99620.95;129694;1104;22811;-62
2021/06/02 03:05:32;;;;;;;4.00;2.38;;;;;;;10.61;62.53;99619.55;129610;1104;23210;-63
2021/06/02 03:08:09;;;;;;;3.60;2.37;;;;;;;10.61;62.35;99622.27;129676;1104;22659;-63
2021/06/02 03:12:17;;;;;;;3.37;2.33;;;;;;;10.59;62.56;99616.25;125622;1089;22736;-60
2021/06/02 03:15:00;;;;;;;5.05;2.65;;;;;;;10.60;62.52;99615.17;125318;1101;24431;-61
2021/06/02 03:17:34;;;;;;;3.95;2.45;;;;;;;10.59;62.71;99618.98;129981;1101;22546;-61
2021/06/02 03:20:22;;;;;;;6.13;2.65;;;;;;;10.57;62.95;99619.23;129961;1101;23743;-61
2021/06/02 03:22:50;;;;;;;5.63;2.40;;;;;;;10.57;63.10;99610.23;129967;1101;23314;-61
2021/06/02 03:25:29;;;;;;;2.87;2.10;;;;;;;10.56;62.97;99611.31;129935;1101;22584;-62
2021/06/02 03:28:21;;;;;;;9.05;2.70;;;;;;;10.57;62.89;99630.13;129989;1101;22571;-61
2021/06/02 03:31:07;;;;;;;5.57;2.67;;;;;;;10.56;63.04;99623.03;129952;1101;22721;-61
2021/06/02 03:34:13;;;;;;;5.03;2.40;;;;;;;10.58;63.19;99617.33;129985;1101;22717;-62
2021/06/02 03:36:42;;;;;;;5.00;2.13;;;;;;;10.58;63.12;99623.60;129975;1101;22598;-63
2021/06/02 03:39:18;;;;;;;4.83;2.47;;;;;;;10.59;63.61;99625.25;129963;1101;23566;-63
2021/06/02 03:41:50;;;;;;;7.63;2.73;;;;;;;10.61;63.42;99627.72;129895;1101;23220;-63
2021/06/02 03:44:57;;;;;;;5.73;2.93;;;;;;;10.61;63.22;99633.17;130041;1101;22513;-63
2021/06/02 03:47:52;;;;;;;6.10;2.60;;;;;;;10.62;63.31;99632.92;129971;1101;22590;-64
2021/06/02 03:50:25;;;;;;;5.20;2.50;;;;;;;10.62;63.58;99627.47;129973;1101;23363;-64
2021/06/02 03:53:11;;;;;;;4.88;2.80;;;;;;;10.62;63.48;99623.92;129921;1101;22600;-63
2021/06/02 03:55:48;;;;;;;3.27;2.40;;;;;;;10.63;63.37;99620.12;129729;1102;22537;-63
2021/06/02 03:58:36;;;;;;;8.10;2.40;;;;;;;10.63;63.60;99620.12;129972;1101;23519;-63
2021/06/02 04:01:15;;;;;;;4.43;2.30;;;;;;;10.65;63.53;99623.41;129968;1101;22596;-63
2021/06/02 04:04:06;;;;;;;7.58;2.40;;;;;;;10.67;63.57;99621.27;129885;1101;22656;-63
2021/06/02 04:06:53;;;;;;;8.33;3.00;;;;;;;10.67;63.63;99621.27;129710;1101;23768;-64
2021/06/02 04:09:24;;;;;;;4.55;2.33;;;;;;;10.70;63.89;99619.90;130017;1101;22653;-64
2021/06/02 04:12:28;;;;;;;4.70;2.78;;;;;;;10.72;63.91;99623.20;129803;1102;22638;-63
2021/06/02 04:14:58;;;;;;;5.23;2.47;;;;;;;10.73;63.57;99609.31;129974;1101;23207;-63
2021/06/02 04:17:36;;;;;;;9.03;3.20;;;;;;;10.73;63.59;99614.77;130000;1101;23405;-63
2021/06/02 04:20:05;;;;;;;4.70;2.67;;;;;;;10.74;63.65;99616.42;129958;1101;22585;-62
2021/06/02 04:22:33;;;;;;;13.83;2.80;;;;;;;10.74;64.06;99632.77;129925;1101;22549;-62
2021/06/02 04:25:02;;;;;;;7.43;2.28;;;;;;;10.77;63.92;99620.53;130036;1101;23092;-63
2021/06/02 04:27:30;;;;;;;8.53;2.20;;;;;;;10.79;63.54;99621.93;129979;1101;23441;-62
2021/06/02 04:30:02;;;;;;;5.18;2.40;;;;;;;10.82;63.38;99615.94;129947;1101;23474;-63
2021/06/02 04:32:38;;;;;;;4.03;2.73;;;;;;;10.87;63.63;99620.63;129979;1101;22509;-62
2021/06/02 04:35:08;;;;;;;6.28;2.90;;;;;;;10.89;63.63;99619.30;129838;1101;22634;-62
2021/06/02 04:37:36;;;;;;;6.18;2.40;;;;;;;10.94;63.37;99621.27;129983;1101;22579;-63
2021/06/02 04:40:05;;;;;;;9.28;2.55;;;;;;;10.98;63.26;99611.46;129977;1101;22537;-69
2021/06/02 04:42:37;;;;;;;4.38;2.60;;;;;;;10.99;63.62;99608.48;129996;1101;23202;-69
2021/06/02 04:45:07;;;;;;;5.03;2.93;;;;;;;11.02;63.31;99609.88;129936;1101;22954;-67
2021/06/02 04:47:38;;;;;;;3.70;2.45;;;;;;;11.05;63.58;99613.99;130023;1101;22676;-67
2021/06/02 04:50:18;;;;;;;3.85;2.40;;;;;;;11.07;63.54;99622.74;129902;1101;22557;-67
2021/06/02 04:53:25;;;;;;;6.08;2.63;;;;;;;11.07;63.37;99620.84;130004;1101;22711;-67
2021/06/02 04:56:12;;;;;;;3.80;2.40;;;;;;;11.08;63.49;99619.76;129919;1101;22617;-67
2021/06/02 04:59:04;;;;;;;4.45;2.33;;;;;;;11.06;63.38;99621.92;130016;1101;22557;-67
2021/06/02 05:02:09;;;;;;;5.55;2.38;;;;;;;11.08;63.47;99630.66;129917;1101;22625;-69
2021/06/02 05:04:57;;;;;;;7.30;2.15;;;;;;;11.09;63.48;99626.86;129951;1101;22541;-69
2021/06/02 05:07:56;;;;;;;6.13;2.20;;;;;;;11.10;63.69;99628.51;129993;1101;23590;-70
2021/06/02 05:10:53;;;;;;;5.30;2.28;;;;;;;11.12;63.38;99625.50;129985;1101;22564;-69
2021/06/02 05:13:58;;;;;;;14.35;2.30;;;;;;;11.13;63.47;99627.14;130003;1101;22510;-70
2021/06/02 05:17:16;;;;;;;4.58;2.80;;;;;;;11.14;63.29;99624.16;129979;1101;22499;-69
2021/06/02 05:20:25;;;;;;;5.85;2.85;;;;;;;11.17;63.82;99625.55;129922;1101;23479;-69
2021/06/02 05:23:12;;;;;;;4.00;2.73;;;;;;;11.20;64.18;99619.59;130023;1101;22505;-69
2021/06/02 05:26:16;;;;;;;6.95;3.00;;;;;;;11.22;63.80;99637.34;129965;1101;24373;-69
2021/06/02 05:28:51;;;;;;;8.95;2.50;;;;;;;11.25;63.47;99625.09;129997;1101;23135;-68
2021/06/02 05:31:58;;;;;;;3.20;2.55;;;;;;;11.29;63.75;99628.92;129704;1101;23292;-68
2021/06/02 05:34:37;;;;;;;5.95;2.40;;;;;;;11.36;63.74;99623.27;129992;1101;23195;-68
2021/06/02 05:37:16;;;;;;;3.95;2.10;;;;;;;11.42;63.70;99639.39;129983;1101;22590;-69
2021/06/02 05:39:57;;;;;;;8.05;2.75;;;;;;;11.50;63.32;99636.20;129993;1101;22600;-68
2021/06/02 05:42:50;;;;;;;4.98;2.08;;;;;;;11.58;62.83;99621.23;129920;1101;22541;-68
2021/06/02 05:45:38;;;;;;;5.28;2.85;;;;;;;11.69;63.28;99631.14;130009;1101;22564;-68
2021/06/02 05:48:44;;;;;;;9.18;2.53;;;;;;;11.81;63.32;99631.00;129987;1101;22510;-68
2021/06/02 05:51:12;;;;;;;7.50;2.30;;;;;;;11.92;62.89;99633.52;129952;1101;22584;-69
2021/06/02 05:53:59;;;;;;;7.20;2.53;;;;;;;12.00;62.68;99633.01;129934;1101;22545;-70
2021/06/02 05:56:37;;;;;;;5.38;2.25;;;;;;;12.10;62.50;99643.19;129883;1101;22643;-69
2021/06/02 05:59:12;;;;;;;5.55;2.60;;;;;;;12.17;63.03;99640.20;129960;1101;22582;-69
2021/06/02 06:02:12;;;;;;;5.33;2.28;;;;;;;12.20;62.30;99645.14;129930;1101;23439;-69
2021/06/02 06:05:13;;;;;;;6.98;2.20;;;;;;;12.20;62.82;99640.50;129988;1101;22649;-68
2021/06/02 06:08:08;;;;;;;4.08;2.38;;;;;;;12.20;62.35;99650.60;129936;1101;22564;-69
2021/06/02 06:11:04;;;;;;;3.88;2.50;;;;;;;12.20;61.87;99651.42;129935;1101;22564;-68
2021/06/02 06:14:30;;;;;;;6.93;2.30;;;;;;;12.20;61.10;99645.96;129928;1101;22540;-68
2021/06/02 06:17:13;;;;;;;5.40;2.18;;;;;;;12.19;61.20;99652.52;129580;1104;23822;-68
2021/06/02 06:20:13;;;;;;;4.15;2.20;;;;;;;12.19;61.57;99648.95;129597;1104;23102;-68
2021/06/02 06:23:15;;;;;;;8.98;2.08;;;;;;;12.17;61.27;99649.22;129582;1104;22579;-68
2021/06/02 06:26:15;;;;;;;9.08;2.80;;;;;;;12.16;61.59;99644.84;129594;1104;24992;-68
2021/06/02 06:29:20;;;;;;;7.43;2.48;;;;;;;12.18;62.25;99655.50;129531;1104;22584;-68
2021/06/02 06:31:49;;;;;;;4.65;2.08;;;;;;;12.18;62.02;99642.67;129662;1104;22564;-68
2021/06/02 06:34:20;;;;;;;5.05;2.10;;;;;;;12.20;62.22;99643.23;129528;1104;22539;-69
2021/06/02 06:36:50;;;;;;;3.25;2.23;;;;;;;12.22;61.88;99643.79;129638;1104;23204;-68
2021/06/02 06:39:34;;;;;;;10.43;2.50;;;;;;;12.24;61.51;99635.33;128754;1105;23428;-71
2021/06/02 06:42:03;;;;;;;6.23;2.00;;;;;;;12.27;61.11;99640.23;129615;1105;22767;-69
2021/06/02 06:44:33;;;;;;;5.35;2.23;;;;;;;12.30;60.90;99640.54;129542;1104;22576;-68
2021/06/02 06:47:02;;;;;;;8.03;2.97;;;;;;;12.33;61.13;99640.01;129668;1101;22650;-68
2021/06/02 06:49:30;;;;;;;6.00;2.15;;;;;;;12.37;60.94;99638.40;129915;1101;23360;-67
2021/06/02 06:52:03;;;;;;;5.70;2.28;;;;;;;12.42;61.00;99634.02;129691;1102;22550;-68
2021/06/02 06:54:32;;;;;;;11.35;2.53;;;;;;;12.48;61.08;99624.77;129905;1101;22539;-68
2021/06/02 06:57:00;;;;;;;4.25;2.08;;;;;;;12.53;60.90;99633.00;129916;1101;22655;-68
2021/06/02 06:59:30;;;;;;;5.55;2.75;;;;;;;12.59;60.97;99631.91;129918;1101;22550;-68
2021/06/02 07:01:58;;;;;;;8.15;2.60;;;;;;;12.65;59.92;99619.91;130015;1101;22526;-68
2021/06/02 07:04:28;;;;;;;8.60;2.60;;;;;;;12.70;60.26;99617.98;129675;1101;22642;-67
2021/06/02 07:06:57;;;;;;;11.33;2.15;;;;;;;12.74;59.14;99624.57;129982;1101;22569;-68
2021/06/02 07:09:25;;;;;;;4.30;2.60;;;;;;;12.80;59.76;99625.41;129974;1101;22714;-68
2021/06/02 07:11:54;;;;;;;4.67;2.37;;;;;;;12.85;59.31;99609.00;129912;1101;22632;-67
2021/06/02 07:14:25;;;;;;;4.20;1.93;;;;;;;12.91;59.57;99618.87;129969;1101;22576;-67
2021/06/02 07:16:53;;;;;;;2.58;1.85;;;;;;;12.95;59.42;99613.69;129733;1101;23399;-68
2021/06/02 07:19:22;;;;;;;7.15;2.40;;;;;;;13.00;59.48;99617.23;129642;1101;23590;-68
2021/06/02 07:21:52;;;;;;;6.48;2.40;;;;;;;13.04;59.08;99617.52;129936;1101;22656;-67
2021/06/02 07:24:21;;;;;;;3.88;2.25;;;;;;;13.01;58.81;99616.14;129738;1102;23422;-68
2021/06/02 07:26:50;;;;;;;7.15;2.20;;;;;;;13.07;59.09;99620.53;129665;1103;22620;-68
2021/06/02 07:29:23;;;;;;;9.70;2.50;;;;;;;13.06;58.42;99613.42;129956;1101;23386;-68
2021/06/02 07:31:52;;;;;;;8.85;2.43;;;;;;;13.08;58.61;99624.92;129941;1101;22560;-67
2021/06/02 07:34:21;;;;;;;6.38;2.38;;;;;;;13.09;59.15;99632.03;129932;1101;22576;-68
2021/06/02 07:36:50;;;;;;;3.78;2.50;;;;;;;13.14;59.34;99619.44;129945;1101;22597;-69
2021/06/02 07:39:19;;;;;;;4.73;2.30;;;;;;;13.18;58.81;99645.20;129988;1101;22641;-63
2021/06/02 07:41:48;;;;;;;10.25;2.45;;;;;;;13.22;58.51;99632.63;129940;1101;23698;-63
2021/06/02 07:44:16;;;;;;;6.95;2.43;;;;;;;13.27;58.56;99633.42;129975;1101;22542;-62
2021/06/02 07:46:44;;;;;;;8.00;2.70;;;;;;;13.32;58.95;99641.65;129957;1101;22656;-62
2021/06/02 07:49:13;;;;;;;2.95;2.30;;;;;;;13.38;58.68;99624.15;129966;1101;22611;-62
2021/06/02 07:51:42;;;;;;;9.63;2.95;;;;;;;13.45;58.74;99629.33;129935;1101;22572;-62
2021/06/02 07:54:10;;;;;;;4.18;2.43;;;;;;;13.51;58.49;99621.95;129995;1101;23268;-62
2021/06/02 07:56:39;;;;;;;9.78;3.43;;;;;;;13.57;59.04;99629.87;129951;1101;22545;-62
2021/06/02 07:59:07;;;;;;;7.33;2.30;;;;;;;13.62;58.00;99635.34;129948;1101;23636;-62
2021/06/02 08:01:35;;;;;;;3.20;1.75;;;;;;;13.65;58.15;99623.86;130001;1101;22641;-62
2021/06/02 08:04:05;;;;;;;4.48;1.85;;;;;;;13.68;57.62;99631.52;129948;1101;23335;-62
2021/06/02 08:06:34;;;;;;;8.70;2.23;;;;;;;13.71;56.75;99628.20;129933;1101;22655;-63
2021/06/02 08:09:04;;;;;;;4.13;1.60;;;;;;;13.73;56.74;99638.89;130012;1101;23867;-62
2021/06/02 08:11:32;;;;;;;8.75;2.00;;;;;;;13.76;57.36;99630.95;129938;1101;23247;-62
2021/06/02 08:14:01;;;;;;;12.70;2.00;;;;;;;13.80;56.65;99631.23;129984;1101;23202;-62
2021/06/02 08:16:30;;;;;;;8.98;2.50;;;;;;;13.86;56.28;99632.02;129942;1101;23389;-62
2021/06/02 08:18:58;;;;;;;8.08;2.00;;;;;;;13.87;57.17;99619.97;129989;1101;23434;-62
2021/06/02 08:21:27;;;;;;;7.30;1.90;;;;;;;13.97;56.36;99633.66;129710;1103;22700;-62
2021/06/02 08:23:55;;;;;;;6.43;1.93;;;;;;;14.03;56.24;99633.36;129985;1101;22543;-63
2021/06/02 08:26:24;;;;;;;4.38;1.65;;;;;;;14.06;55.97;99640.20;129958;1101;22638;-63
2021/06/02 08:28:56;;;;;;;4.78;2.25;;;;;;;14.08;55.43;99635.27;129944;1101;23426;-63
2021/06/02 08:31:24;;;;;;;5.63;2.73;;;;;;;14.08;54.96;99649.80;130015;1101;22532;-63
2021/06/02 08:33:54;;;;;;;14.35;1.98;;;;;;;14.07;55.10;99639.11;129988;1101;22531;-63
2021/06/02 08:36:22;;;;;;;7.63;1.90;;;;;;;14.07;55.07;99639.11;129980;1101;22958;-63
2021/06/02 08:38:52;;;;;;;8.73;2.13;;;;;;;14.07;55.16;99639.11;129950;1101;22543;-63
2021/06/02 08:41:20;;;;;;;6.10;2.00;;;;;;;14.05;54.82;99647.61;125830;1101;22732;-62
2021/06/02 08:43:50;;;;;;;5.88;1.80;;;;;;;14.01;54.46;99654.73;129927;1101;22626;-62
2021/06/02 08:46:19;;;;;;;6.85;1.90;;;;;;;13.98;54.68;99654.48;129720;1103;23433;-63
2021/06/02 08:49:07;;;;;;;10.28;2.23;;;;;;;13.96;54.96;99652.02;129984;1101;22533;-62
2021/06/02 08:51:38;;;;;;;7.03;1.75;;;;;;;13.96;55.46;99656.67;130020;1101;24554;-63
2021/06/02 08:54:07;;;;;;;5.38;2.48;;;;;;;13.97;55.42;99647.36;129970;1101;22611;-63
2021/06/02 08:56:43;;;;;;;8.78;2.60;;;;;;;13.99;55.45;99661.61;129991;1101;22610;-63
2021/06/02 08:59:11;;;;;;;4.97;1.87;;;;;;;14.01;55.29;99649.25;129966;1101;22640;-63
2021/06/02 09:01:40;;;;;;;6.40;1.95;;;;;;;14.03;55.14;99665.41;130028;1101;22521;-63
2021/06/02 09:04:11;;;;;;;7.63;1.98;;;;;;;14.06;55.05;99670.34;129951;1101;23340;-63
2021/06/02 09:06:46;;;;;;;5.15;1.98;;;;;;;14.10;54.85;99663.22;129987;1101;23145;-62
2021/06/02 09:09:16;;;;;;;4.40;1.78;;;;;;;14.13;54.75;99647.05;129739;1101;22696;-62
2021/06/02 09:11:51;;;;;;;6.80;2.00;;;;;;;14.18;54.99;99653.59;129978;1101;23252;-63
2021/06/02 09:14:35;;;;;;;6.40;1.75;;;;;;;14.22;54.19;99654.69;129959;1101;22550;-63
2021/06/02 09:17:06;;;;;;;7.50;1.60;;;;;;;14.25;54.31;99648.66;130027;1101;23148;-63
2021/06/02 09:19:38;;;;;;;13.80;2.10;;;;;;;14.27;53.86;99646.47;129901;1101;22578;-62
2021/06/02 09:22:11;;;;;;;5.50;2.18;;;;;;;14.28;53.90;99642.63;129973;1101;22568;-63
2021/06/02 09:24:58;;;;;;;8.98;1.75;;;;;;;14.26;53.87;99645.64;129966;1101;22517;-62
2021/06/02 09:27:39;;;;;;;6.98;2.05;;;;;;;14.26;55.11;99640.16;130013;1101;22536;-62
2021/06/02 09:30:09;;;;;;;7.68;1.88;;;;;;;14.29;55.60;99650.54;129964;1101;22577;-62
2021/06/02 09:32:43;;;;;;;7.23;1.90;;;;;;;14.30;55.17;99641.22;130027;1101;22526;-62
2021/06/02 09:35:11;;;;;;;10.80;1.90;;;;;;;14.31;54.39;99650.27;129978;1101;22612;-62
2021/06/02 09:38:22;;;;;;;6.28;1.58;;;;;;;14.31;54.46;99653.00;129958;1101;22607;-62
2021/06/02 09:40:55;;;;;;;4.43;1.60;;;;;;;14.29;54.72;99649.72;126645;1101;24494;-62
2021/06/02 09:43:33;;;;;;;6.15;1.80;;;;;;;14.30;54.29;99649.44;130007;1101;22640;-62
2021/06/02 09:46:09;;;;;;;8.35;2.53;;;;;;;14.29;54.19;99661.50;129886;1101;23078;-62
2021/06/02 09:48:47;;;;;;;5.68;2.33;;;;;;;14.27;54.11;99669.21;130004;1101;22581;-62
2021/06/02 09:51:38;;;;;;;7.33;2.50;;;;;;;14.24;54.47;99652.50;129946;1101;23375;-63
2021/06/02 09:54:07;;;;;;;4.15;2.08;;;;;;;14.20;54.84;99657.70;129989;1101;23493;-62
2021/06/02 09:56:46;;;;;;;5.13;2.70;;;;;;;14.19;55.64;99672.50;129911;1101;22516;-62
2021/06/02 09:59:15;;;;;;;5.30;1.83;;;;;;;14.20;55.00;99662.36;130014;1101;22547;-62
2021/06/02 10:01:57;;;;;;;8.15;3.80;;;;;;;14.20;54.97;99657.70;129957;1101;22576;-62
2021/06/02 10:04:32;;;;;;;5.18;1.60;;;;;;;14.23;55.31;99656.33;130012;1101;22531;-62
2021/06/02 10:07:02;;;;;;;10.18;2.13;;;;;;;14.24;54.93;99653.31;129957;1101;22797;-63
2021/06/02 10:09:50;;;;;;;5.68;1.60;;;;;;;14.26;54.57;99645.64;130023;1101;22509;-62
2021/06/02 10:12:19;;;;;;;3.18;2.03;;;;;;;14.30;54.13;99663.14;129719;1101;23744;-63
2021/06/02 10:14:54;;;;;;;2.75;1.70;;;;;;;14.31;54.53;99670.27;130016;1101;22588;-63
2021/06/02 10:17:33;;;;;;;6.78;2.38;;;;;;;14.33;54.28;99668.08;129968;1101;22657;-63
2021/06/02 10:20:12;;;;;;;8.85;2.00;;;;;;;14.37;53.49;99657.38;130014;1101;22544;-63
2021/06/02 10:22:41;;;;;;;8.20;3.63;;;;;;;14.39;54.21;99655.19;130000;1101;22573;-63
2021/06/02 10:25:10;;;;;;;8.60;2.40;;;;;;;14.42;54.13;99668.38;130036;1101;22564;-62
2021/06/02 10:27:39;;;;;;;8.40;2.30;;;;;;;14.45;54.77;99678.75;129989;1101;22681;-65
2021/06/02 10:30:08;;;;;;;6.85;1.93;;;;;;;14.48;54.84;99670.80;130021;1101;23510;-62
2021/06/02 10:32:37;;;;;;;7.18;2.33;;;;;;;14.52;54.86;99668.33;129931;1101;23071;-65
2021/06/02 10:35:08;;;;;;;2.75;1.85;;;;;;;14.56;54.58;99680.38;129978;1101;22541;-63
2021/06/02 10:37:56;;;;;;;6.25;2.43;;;;;;;14.61;54.59;99674.03;129947;1101;23450;-62
2021/06/02 10:40:25;;;;;;;8.93;1.80;;;;;;;14.64;54.29;99677.05;129695;1102;23154;-68
2021/06/02 10:43:03;;;;;;;3.55;1.30;;;;;;;14.67;54.15;99662.78;129927;1101;22550;-67
2021/06/02 10:45:52;;;;;;;7.73;2.60;;;;;;;14.70;53.61;99664.14;129930;1101;22521;-67
2021/06/02 10:48:41;;;;;;;5.98;1.60;;;;;;;14.73;53.28;99667.12;129738;1101;22672;-68
2021/06/02 10:51:10;;;;;;;10.40;2.15;;;;;;;14.75;52.98;99664.09;130032;1101;22542;-68
2021/06/02 10:53:46;;;;;;;8.58;1.95;;;;;;;14.79;53.22;99667.92;129964;1101;22544;-68
2021/06/02 10:56:19;;;;;;;6.18;1.65;;;;;;;14.81;52.58;99671.22;130022;1101;23676;-68
2021/06/02 10:58:48;;;;;;;2.48;1.40;;;;;;;14.85;52.17;99686.02;129938;1101;22574;-68
2021/06/02 11:01:18;;;;;;;6.55;2.48;;;;;;;14.88;52.73;99679.12;129684;1102;22522;-68
2021/06/02 11:04:06;;;;;;;6.00;2.13;;;;;;;14.92;52.22;99688.44;129974;1101;22525;-68
2021/06/02 11:06:36;;;;;;;2.55;1.60;;;;;;;14.96;52.54;99684.03;129996;1101;22562;-67
2021/06/02 11:09:14;;;;;;;4.73;1.85;;;;;;;14.99;52.01;99680.73;129987;1101;22614;-68
2021/06/02 11:11:46;;;;;;;6.85;2.20;;;;;;;15.03;51.85;99676.29;129660;1101;22541;-68
2021/06/02 11:14:33;;;;;;;9.45;2.20;;;;;;;15.06;52.36;99683.96;129953;1101;23022;-68
2021/06/02 11:17:14;;;;;;;3.25;1.80;;;;;;;15.08;51.89;99690.81;129954;1101;22570;-68
2021/06/02 11:20:08;;;;;;;4.30;1.55;;;;;;;15.09;51.27;99694.38;129897;1101;22548;-68
2021/06/02 11:22:36;;;;;;;5.35;1.70;;;;;;;15.13;50.95;99682.56;129904;1101;22601;-68
2021/06/02 11:25:24;;;;;;;11.55;3.03;;;;;;;15.16;52.05;99683.89;129655;1101;23386;-68
2021/06/02 11:27:53;;;;;;;13.10;8.00;;;;;;;15.18;52.61;99682.52;129734;1101;22505;-68
2021/06/02 11:30:22;;;;;;;10.58;6.15;;;;;;;15.21;52.66;99690.19;129934;1101;22591;-69
2021/06/02 11:33:07;;;;;;;6.20;3.20;;;;;;;15.20;52.60;99666.58;129929;1101;24099;-69
2021/06/02 11:35:57;;;;;;;5.45;2.18;;;;;;;15.27;52.88;99680.00;129958;1101;22507;-68
2021/06/02 11:38:26;;;;;;;7.00;1.83;;;;;;;15.29;52.30;99685.20;129930;1101;23310;-68
2021/06/02 11:40:55;;;;;;;3.85;1.55;;;;;;;15.31;52.21;99678.30;129910;1101;22686;-63
2021/06/02 11:43:23;;;;;;;7.00;2.65;;;;;;;15.33;51.99;99683.51;129928;1101;22501;-63
2021/06/02 11:45:55;;;;;;;6.95;1.88;;;;;;;15.35;52.04;99682.13;129887;1101;22666;-63
2021/06/02 11:48:25;;;;;;;2.55;1.83;;;;;;;15.36;51.87;99675.53;129901;1101;22522;-63
2021/06/02 11:50:54;;;;;;;4.00;1.55;;;;;;;15.39;52.66;99672.22;129617;1101;22563;-63
2021/06/02 11:53:23;;;;;;;11.03;1.80;;;;;;;15.43;51.99;99675.22;129937;1101;22621;-63
2021/06/02 11:55:52;;;;;;;4.08;2.38;;;;;;;15.45;51.54;99683.97;129603;1101;22596;-63
2021/06/02 11:58:26;;;;;;;6.10;1.58;;;;;;;15.47;51.27;99665.28;129972;1101;22512;-63
2021/06/02 12:00:56;;;;;;;3.38;1.70;;;;;;;15.49;51.32;99663.89;129880;1101;22547;-63
2021/06/02 12:03:24;;;;;;;6.73;2.25;;;;;;;15.53;51.17;99669.64;129952;1101;23359;-63
2021/06/02 12:05:53;;;;;;;2.73;1.75;;;;;;;15.55;51.08;99671.03;129919;1101;23640;-63
2021/06/02 12:08:23;;;;;;;9.75;1.95;;;;;;;15.58;50.67;99675.14;129959;1101;22667;-62
2021/06/02 12:10:57;;;;;;;7.18;2.60;;;;;;;15.61;50.72;99668.22;129904;1101;22580;-63
2021/06/02 12:13:35;;;;;;;3.93;1.60;;;;;;;15.66;50.64;99680.00;130014;1101;22518;-63